sensor_id;sensor_type;location;lat;lon;timestamp;temperature;humidity
11855;DHT22;5987;53.140;8.904;2022-12-29T00:02:51;9.70;99.90
11855;DHT22;5987;53.140;8.904;2022-12-29T00:05:55;9.80;99.90
11855;DHT22;5987;53.140;8.904;2022-12-29T00:09:00;9.80;99.90
11855;DHT22;5987;53.140;8.904;2022-12-29T00:12:05;9.70;99.90
11855;DHT22;5987;53.140;8.904;2022-12-29T00:15:09;9.70;99.90
11855;DHT22;5987;53.140;8.904;2022-12-29T00:18:27;9.70;99.90
11855;DHT22;5987;53.140;8.904;2022-12-29T00:21:31;9.80;99.90
11855;DHT22;5987;53.140;8.904;2022-12-29T00:25:01;9.80;99.90
11855;DHT22;5987;53.140;8.904;2022-12-29T00:28:24;9.80;99.90
11855;DHT22;5987;53.140;8.904;2022-12-29T00:31:45;9.80;99.90
11855;DHT22;5987;53.140;8.904;2022-12-29T00:35:08;9.80;99.90
11855;DHT22;5987;53.140;8.904;2022-12-29T00:38:14;9.90;99.90
11855;DHT22;5987;53.140;8.904;2022-12-29T00:41:47;9.90;99.90
11855;DHT22;5987;53.140;8.904;2022-12-29T00:45:28;10.00;99.90
11855;DHT22;5987;53.140;8.904;2022-12-29T00:48:32;10.00;99.90
11855;DHT22;5987;53.140;8.904;2022-12-29T00:51:54;10.10;99.90
11855;DHT22;5987;53.140;8.904;2022-12-29T00:54:58;10.10;99.90
11855;DHT22;5987;53.140;8.904;2022-12-29T00:58:02;10.10;99.90
11855;DHT22;5987;53.140;8.904;2022-12-29T01:01:08;10.10;99.90
11855;DHT22;5987;53.140;8.904;2022-12-29T01:04:13;10.10;99.90
11855;DHT22;5987;53.140;8.904;2022-12-29T01:07:16;10.10;99.90
11855;DHT22;5987;53.140;8.904;2022-12-29T01:10:20;10.10;99.90
11855;DHT22;5987;53.140;8.904;2022-12-29T01:13:23;10.10;99.90
11855;DHT22;5987;53.140;8.904;2022-12-29T01:16:28;10.10;99.90
11855;DHT22;5987;53.140;8.904;2022-12-29T01:19:32;10.10;99.90
11855;DHT22;5987;53.140;8.904;2022-12-29T01:22:36;10.10;99.90
11855;DHT22;5987;53.140;8.904;2022-12-29T01:25:39;10.10;99.90
11855;DHT22;5987;53.140;8.904;2022-12-29T01:28:44;10.20;99.90
11855;DHT22;5987;53.140;8.904;2022-12-29T01:31:49;10.20;99.90
11855;DHT22;5987;53.140;8.904;2022-12-29T01:34:53;10.20;99.90
11855;DHT22;5987;53.140;8.904;2022-12-29T01:37:57;10.20;99.90
11855;DHT22;5987;53.140;8.904;2022-12-29T01:41:01;10.20;99.90
11855;DHT22;5987;53.140;8.904;2022-12-29T01:44:46;10.30;99.90
11855;DHT22;5987;53.140;8.904;2022-12-29T01:47:57;10.30;99.90
11855;DHT22;5987;53.140;8.904;2022-12-29T01:51:04;10.40;99.90
11855;DHT22;5987;53.140;8.904;2022-12-29T01:54:09;10.40;99.90
11855;DHT22;5987;53.140;8.904;2022-12-29T01:57:18;10.40;99.90
11855;DHT22;5987;53.140;8.904;2022-12-29T02:00:25;10.40;99.90
11855;DHT22;5987;53.140;8.904;2022-12-29T02:03:31;10.50;99.90
11855;DHT22;5987;53.140;8.904;2022-12-29T02:06:40;10.50;99.90
11855;DHT22;5987;53.140;8.904;2022-12-29T02:09:50;10.50;99.90
11855;DHT22;5987;53.140;8.904;2022-12-29T02:12:55;10.50;99.90
11855;DHT22;5987;53.140;8.904;2022-12-29T02:16:09;10.50;99.90
11855;DHT22;5987;53.140;8.904;2022-12-29T02:23:42;10.60;99.90
11855;DHT22;5987;53.140;8.904;2022-12-29T02:31:03;10.60;99.90
11855;DHT22;5987;53.140;8.904;2022-12-29T02:34:22;10.60;99.90
11855;DHT22;5987;53.140;8.904;2022-12-29T02:37:40;10.60;99.90
11855;DHT22;5987;53.140;8.904;2022-12-29T02:40:54;10.60;99.90
11855;DHT22;5987;53.140;8.904;2022-12-29T02:44:12;10.70;99.90
11855;DHT22;5987;53.140;8.904;2022-12-29T02:47:26;10.70;99.90
11855;DHT22;5987;53.140;8.904;2022-12-29T02:50:42;10.70;99.90
11855;DHT22;5987;53.140;8.904;2022-12-29T02:53:52;10.70;99.90
11855;DHT22;5987;53.140;8.904;2022-12-29T02:57:28;10.70;99.90
11855;DHT22;5987;53.140;8.904;2022-12-29T03:00:37;10.70;99.90
11855;DHT22;5987;53.140;8.904;2022-12-29T03:04:03;10.80;99.90
11855;DHT22;5987;53.140;8.904;2022-12-29T03:07:24;10.70;99.90
11855;DHT22;5987;53.140;8.904;2022-12-29T03:10:41;10.80;99.90
11855;DHT22;5987;53.140;8.904;2022-12-29T03:14:01;10.80;99.90
11855;DHT22;5987;53.140;8.904;2022-12-29T03:17:33;10.80;99.90
11855;DHT22;5987;53.140;8.904;2022-12-29T03:20:49;10.90;99.90
11855;DHT22;5987;53.140;8.904;2022-12-29T03:23:57;10.90;99.90
11855;DHT22;5987;53.140;8.904;2022-12-29T03:27:03;10.90;99.90
11855;DHT22;5987;53.140;8.904;2022-12-29T03:30:10;10.90;99.90
11855;DHT22;5987;53.140;8.904;2022-12-29T03:33:20;10.90;99.90
11855;DHT22;5987;53.140;8.904;2022-12-29T03:36:30;10.80;99.90
11855;DHT22;5987;53.140;8.904;2022-12-29T03:39:41;10.90;99.90
11855;DHT22;5987;53.140;8.904;2022-12-29T03:42:47;10.80;99.90
11855;DHT22;5987;53.140;8.904;2022-12-29T03:45:51;10.80;99.90
11855;DHT22;5987;53.140;8.904;2022-12-29T03:48:55;10.80;99.90
11855;DHT22;5987;53.140;8.904;2022-12-29T03:52:00;10.80;99.90
11855;DHT22;5987;53.140;8.904;2022-12-29T03:55:05;10.90;99.90
11855;DHT22;5987;53.140;8.904;2022-12-29T03:58:09;10.90;99.90
11855;DHT22;5987;53.140;8.904;2022-12-29T04:01:12;10.90;99.90
11855;DHT22;5987;53.140;8.904;2022-12-29T04:04:19;10.90;99.90
11855;DHT22;5987;53.140;8.904;2022-12-29T04:07:24;10.90;99.90
11855;DHT22;5987;53.140;8.904;2022-12-29T04:10:27;10.80;99.90
11855;DHT22;5987;53.140;8.904;2022-12-29T04:13:31;10.80;99.90
11855;DHT22;5987;53.140;8.904;2022-12-29T04:16:35;10.80;99.90
11855;DHT22;5987;53.140;8.904;2022-12-29T04:19:40;10.70;99.90
11855;DHT22;5987;53.140;8.904;2022-12-29T04:22:46;10.60;99.90
11855;DHT22;5987;53.140;8.904;2022-12-29T04:25:49;10.60;99.90
11855;DHT22;5987;53.140;8.904;2022-12-29T04:28:53;10.60;99.90
11855;DHT22;5987;53.140;8.904;2022-12-29T04:31:57;10.60;99.90
11855;DHT22;5987;53.140;8.904;2022-12-29T04:35:00;10.60;99.90
11855;DHT22;5987;53.140;8.904;2022-12-29T04:38:05;10.60;99.90
11855;DHT22;5987;53.140;8.904;2022-12-29T04:41:09;10.60;99.90
11855;DHT22;5987;53.140;8.904;2022-12-29T04:44:13;10.60;99.90
11855;DHT22;5987;53.140;8.904;2022-12-29T04:47:19;10.70;99.90
11855;DHT22;5987;53.140;8.904;2022-12-29T04:50:22;10.70;99.90
11855;DHT22;5987;53.140;8.904;2022-12-29T04:53:27;10.70;99.90
11855;DHT22;5987;53.140;8.904;2022-12-29T04:56:31;10.70;99.90
11855;DHT22;5987;53.140;8.904;2022-12-29T04:59:35;10.70;99.90
11855;DHT22;5987;53.140;8.904;2022-12-29T05:02:38;10.80;99.90
11855;DHT22;5987;53.140;8.904;2022-12-29T05:05:42;10.80;99.90
11855;DHT22;5987;53.140;8.904;2022-12-29T05:08:47;10.90;99.90
11855;DHT22;5987;53.140;8.904;2022-12-29T05:11:51;10.90;99.90
11855;DHT22;5987;53.140;8.904;2022-12-29T05:14:55;10.90;99.90
11855;DHT22;5987;53.140;8.904;2022-12-29T05:17:58;10.90;99.90
11855;DHT22;5987;53.140;8.904;2022-12-29T05:21:02;10.90;99.90
11855;DHT22;5987;53.140;8.904;2022-12-29T05:24:07;11.00;99.90
11855;DHT22;5987;53.140;8.904;2022-12-29T05:27:11;11.00;99.90
11855;DHT22;5987;53.140;8.904;2022-12-29T05:30:15;10.90;99.90
11855;DHT22;5987;53.140;8.904;2022-12-29T05:33:19;10.90;99.90
11855;DHT22;5987;53.140;8.904;2022-12-29T05:36:23;10.90;99.90
11855;DHT22;5987;53.140;8.904;2022-12-29T05:39:28;10.70;99.90
11855;DHT22;5987;53.140;8.904;2022-12-29T05:42:32;10.60;99.90
11855;DHT22;5987;53.140;8.904;2022-12-29T05:45:36;10.50;99.90
11855;DHT22;5987;53.140;8.904;2022-12-29T05:48:40;10.50;99.90
11855;DHT22;5987;53.140;8.904;2022-12-29T05:51:43;10.50;99.90
11855;DHT22;5987;53.140;8.904;2022-12-29T05:54:48;10.50;99.90
11855;DHT22;5987;53.140;8.904;2022-12-29T05:57:52;10.50;99.90
11855;DHT22;5987;53.140;8.904;2022-12-29T06:00:56;10.50;99.90
11855;DHT22;5987;53.140;8.904;2022-12-29T06:04:00;10.50;99.90
11855;DHT22;5987;53.140;8.904;2022-12-29T06:07:04;10.50;99.90
11855;DHT22;5987;53.140;8.904;2022-12-29T06:10:09;10.50;99.90
11855;DHT22;5987;53.140;8.904;2022-12-29T06:13:13;10.50;99.90
11855;DHT22;5987;53.140;8.904;2022-12-29T06:16:18;10.50;99.90
11855;DHT22;5987;53.140;8.904;2022-12-29T06:19:21;10.50;99.90
11855;DHT22;5987;53.140;8.904;2022-12-29T06:22:25;10.60;99.90
11855;DHT22;5987;53.140;8.904;2022-12-29T06:25:30;10.60;99.90
11855;DHT22;5987;53.140;8.904;2022-12-29T06:28:35;10.60;99.90
11855;DHT22;5987;53.140;8.904;2022-12-29T06:31:39;10.60;99.90
11855;DHT22;5987;53.140;8.904;2022-12-29T06:34:43;10.60;99.90
11855;DHT22;5987;53.140;8.904;2022-12-29T06:37:47;10.60;99.90
11855;DHT22;5987;53.140;8.904;2022-12-29T06:40:52;10.60;99.90
11855;DHT22;5987;53.140;8.904;2022-12-29T06:43:56;10.60;99.90
11855;DHT22;5987;53.140;8.904;2022-12-29T06:47:00;10.60;99.90
11855;DHT22;5987;53.140;8.904;2022-12-29T06:50:05;10.60;99.90
11855;DHT22;5987;53.140;8.904;2022-12-29T06:53:09;10.60;99.90
11855;DHT22;5987;53.140;8.904;2022-12-29T06:56:14;10.60;99.90
11855;DHT22;5987;53.140;8.904;2022-12-29T06:59:18;10.60;99.90
11855;DHT22;5987;53.140;8.904;2022-12-29T07:02:22;10.50;99.90
11855;DHT22;5987;53.140;8.904;2022-12-29T07:05:27;10.40;99.90
11855;DHT22;5987;53.140;8.904;2022-12-29T07:08:33;10.30;99.90
11855;DHT22;5987;53.140;8.904;2022-12-29T07:11:38;10.30;99.90
11855;DHT22;5987;53.140;8.904;2022-12-29T07:14:42;10.30;99.90
11855;DHT22;5987;53.140;8.904;2022-12-29T07:17:45;10.30;99.90
11855;DHT22;5987;53.140;8.904;2022-12-29T07:20:51;10.30;99.90
11855;DHT22;5987;53.140;8.904;2022-12-29T07:23:55;10.30;99.90
11855;DHT22;5987;53.140;8.904;2022-12-29T07:27:00;10.20;99.90
11855;DHT22;5987;53.140;8.904;2022-12-29T07:30:04;10.20;99.90
11855;DHT22;5987;53.140;8.904;2022-12-29T07:33:11;10.10;99.90
11855;DHT22;5987;53.140;8.904;2022-12-29T07:36:16;10.10;99.90
11855;DHT22;5987;53.140;8.904;2022-12-29T07:39:19;10.00;99.90
11855;DHT22;5987;53.140;8.904;2022-12-29T07:42:24;10.00;99.90
11855;DHT22;5987;53.140;8.904;2022-12-29T07:45:28;9.90;99.90
11855;DHT22;5987;53.140;8.904;2022-12-29T07:48:32;9.90;99.90
11855;DHT22;5987;53.140;8.904;2022-12-29T07:51:38;9.80;99.90
11855;DHT22;5987;53.140;8.904;2022-12-29T07:54:41;9.90;99.90
11855;DHT22;5987;53.140;8.904;2022-12-29T07:57:46;9.90;99.90
11855;DHT22;5987;53.140;8.904;2022-12-29T08:00:53;9.90;99.90
11855;DHT22;5987;53.140;8.904;2022-12-29T08:03:57;9.90;99.90
11855;DHT22;5987;53.140;8.904;2022-12-29T08:07:01;10.00;99.90
11855;DHT22;5987;53.140;8.904;2022-12-29T08:10:06;9.90;99.90
11855;DHT22;5987;53.140;8.904;2022-12-29T08:13:11;9.90;99.90
11855;DHT22;5987;53.140;8.904;2022-12-29T08:16:15;9.90;99.90
11855;DHT22;5987;53.140;8.904;2022-12-29T08:19:19;9.90;99.90
11855;DHT22;5987;53.140;8.904;2022-12-29T08:22:23;9.90;99.90
11855;DHT22;5987;53.140;8.904;2022-12-29T08:25:27;9.90;99.90
11855;DHT22;5987;53.140;8.904;2022-12-29T08:28:33;9.90;99.90
11855;DHT22;5987;53.140;8.904;2022-12-29T08:31:36;9.90;99.90
11855;DHT22;5987;53.140;8.904;2022-12-29T08:34:40;9.90;99.90
11855;DHT22;5987;53.140;8.904;2022-12-29T08:37:44;9.90;99.90
11855;DHT22;5987;53.140;8.904;2022-12-29T08:40:48;10.00;99.90
11855;DHT22;5987;53.140;8.904;2022-12-29T08:43:53;10.00;99.90
11855;DHT22;5987;53.140;8.904;2022-12-29T08:46:57;10.00;99.90
11855;DHT22;5987;53.140;8.904;2022-12-29T08:50:00;10.00;99.90
11855;DHT22;5987;53.140;8.904;2022-12-29T08:53:04;10.00;99.90
11855;DHT22;5987;53.140;8.904;2022-12-29T08:56:09;10.00;99.90
11855;DHT22;5987;53.140;8.904;2022-12-29T08:59:15;10.10;99.90
11855;DHT22;5987;53.140;8.904;2022-12-29T09:02:18;10.10;99.90
11855;DHT22;5987;53.140;8.904;2022-12-29T09:05:25;10.20;99.90
11855;DHT22;5987;53.140;8.904;2022-12-29T09:08:29;10.20;99.90
11855;DHT22;5987;53.140;8.904;2022-12-29T09:11:33;10.20;99.90
11855;DHT22;5987;53.140;8.904;2022-12-29T09:14:38;10.30;99.90
11855;DHT22;5987;53.140;8.904;2022-12-29T09:17:41;10.30;99.90
11855;DHT22;5987;53.140;8.904;2022-12-29T09:20:46;10.40;99.90
11855;DHT22;5987;53.140;8.904;2022-12-29T09:23:50;10.40;99.90
11855;DHT22;5987;53.140;8.904;2022-12-29T09:26:54;10.40;99.90
11855;DHT22;5987;53.140;8.904;2022-12-29T09:29:59;10.40;99.90
11855;DHT22;5987;53.140;8.904;2022-12-29T09:33:02;10.40;99.90
11855;DHT22;5987;53.140;8.904;2022-12-29T09:36:08;10.50;99.90
11855;DHT22;5987;53.140;8.904;2022-12-29T09:39:12;10.50;99.90
11855;DHT22;5987;53.140;8.904;2022-12-29T09:42:21;10.50;99.90
11855;DHT22;5987;53.140;8.904;2022-12-29T09:45:34;10.50;99.90
11855;DHT22;5987;53.140;8.904;2022-12-29T09:48:47;10.60;99.90
11855;DHT22;5987;53.140;8.904;2022-12-29T09:52:01;10.70;99.90
11855;DHT22;5987;53.140;8.904;2022-12-29T09:55:13;10.60;99.90
11855;DHT22;5987;53.140;8.904;2022-12-29T09:58:24;10.60;99.90
11855;DHT22;5987;53.140;8.904;2022-12-29T10:01:39;10.60;99.90
11855;DHT22;5987;53.140;8.904;2022-12-29T10:04:51;10.70;99.90
11855;DHT22;5987;53.140;8.904;2022-12-29T10:08:03;10.70;99.90
11855;DHT22;5987;53.140;8.904;2022-12-29T10:11:27;10.70;99.90
11855;DHT22;5987;53.140;8.904;2022-12-29T10:14:53;10.80;99.90
11855;DHT22;5987;53.140;8.904;2022-12-29T10:18:16;10.80;99.90
11855;DHT22;5987;53.140;8.904;2022-12-29T10:21:35;10.80;99.90
11855;DHT22;5987;53.140;8.904;2022-12-29T10:24:51;10.80;99.90
11855;DHT22;5987;53.140;8.904;2022-12-29T10:28:00;10.70;99.90
11855;DHT22;5987;53.140;8.904;2022-12-29T10:31:15;10.70;99.90
11855;DHT22;5987;53.140;8.904;2022-12-29T10:34:28;10.70;99.90
11855;DHT22;5987;53.140;8.904;2022-12-29T10:37:39;10.70;99.90
11855;DHT22;5987;53.140;8.904;2022-12-29T10:40:53;10.70;99.90
11855;DHT22;5987;53.140;8.904;2022-12-29T10:44:02;10.70;99.90
11855;DHT22;5987;53.140;8.904;2022-12-29T10:47:10;10.80;99.90
11855;DHT22;5987;53.140;8.904;2022-12-29T10:50:18;10.70;99.90
11855;DHT22;5987;53.140;8.904;2022-12-29T10:53:24;10.70;99.90
11855;DHT22;5987;53.140;8.904;2022-12-29T10:56:34;10.80;99.90
11855;DHT22;5987;53.140;8.904;2022-12-29T10:59:41;10.70;99.90
11855;DHT22;5987;53.140;8.904;2022-12-29T11:03:05;10.70;99.90
11855;DHT22;5987;53.140;8.904;2022-12-29T11:06:29;10.70;99.90
11855;DHT22;5987;53.140;8.904;2022-12-29T11:09:36;10.60;99.90
11855;DHT22;5987;53.140;8.904;2022-12-29T11:12:55;10.60;99.90
11855;DHT22;5987;53.140;8.904;2022-12-29T11:16:00;10.60;99.90
11855;DHT22;5987;53.140;8.904;2022-12-29T11:19:05;10.60;99.90
11855;DHT22;5987;53.140;8.904;2022-12-29T11:22:22;10.60;99.90
11855;DHT22;5987;53.140;8.904;2022-12-29T11:25:28;10.50;99.90
11855;DHT22;5987;53.140;8.904;2022-12-29T11:28:32;10.50;99.90
11855;DHT22;5987;53.140;8.904;2022-12-29T11:31:40;10.60;99.90
11855;DHT22;5987;53.140;8.904;2022-12-29T11:34:45;10.70;99.90
11855;DHT22;5987;53.140;8.904;2022-12-29T11:37:57;10.70;99.90
11855;DHT22;5987;53.140;8.904;2022-12-29T11:41:02;10.80;99.90
11855;DHT22;5987;53.140;8.904;2022-12-29T11:44:12;10.90;99.90
11855;DHT22;5987;53.140;8.904;2022-12-29T11:47:23;11.00;99.90
11855;DHT22;5987;53.140;8.904;2022-12-29T11:50:32;11.00;99.90
11855;DHT22;5987;53.140;8.904;2022-12-29T11:53:43;11.00;99.90
11855;DHT22;5987;53.140;8.904;2022-12-29T11:56:50;11.10;99.90
11855;DHT22;5987;53.140;8.904;2022-12-29T11:59:55;11.00;99.90
11855;DHT22;5987;53.140;8.904;2022-12-29T12:03:04;11.00;99.90
11855;DHT22;5987;53.140;8.904;2022-12-29T12:06:19;11.00;99.90
11855;DHT22;5987;53.140;8.904;2022-12-29T12:09:30;11.00;99.90
11855;DHT22;5987;53.140;8.904;2022-12-29T12:12:43;11.10;99.90
11855;DHT22;5987;53.140;8.904;2022-12-29T12:15:57;11.20;99.90
11855;DHT22;5987;53.140;8.904;2022-12-29T12:19:13;11.10;99.90
11855;DHT22;5987;53.140;8.904;2022-12-29T12:22:29;11.20;99.90
11855;DHT22;5987;53.140;8.904;2022-12-29T12:25:43;11.20;99.90
11855;DHT22;5987;53.140;8.904;2022-12-29T12:28:57;11.20;99.90
11855;DHT22;5987;53.140;8.904;2022-12-29T12:32:09;11.20;99.90
11855;DHT22;5987;53.140;8.904;2022-12-29T12:35:23;11.20;99.90
11855;DHT22;5987;53.140;8.904;2022-12-29T12:38:46;11.20;99.90
11855;DHT22;5987;53.140;8.904;2022-12-29T12:42:06;11.20;99.90
11855;DHT22;5987;53.140;8.904;2022-12-29T12:45:43;11.20;99.90
11855;DHT22;5987;53.140;8.904;2022-12-29T12:52:43;11.10;99.90
11855;DHT22;5987;53.140;8.904;2022-12-29T12:56:26;11.00;99.90
11855;DHT22;5987;53.140;8.904;2022-12-29T12:59:52;10.90;99.90
11855;DHT22;5987;53.140;8.904;2022-12-29T13:03:10;10.90;99.90
11855;DHT22;5987;53.140;8.904;2022-12-29T13:06:23;10.80;99.90
11855;DHT22;5987;53.140;8.904;2022-12-29T13:09:48;10.70;99.90
11855;DHT22;5987;53.140;8.904;2022-12-29T13:13:18;10.70;99.90
11855;DHT22;5987;53.140;8.904;2022-12-29T13:16:42;10.60;99.90
11855;DHT22;5987;53.140;8.904;2022-12-29T13:19:59;10.60;99.90
11855;DHT22;5987;53.140;8.904;2022-12-29T13:23:19;10.50;99.90
11855;DHT22;5987;53.140;8.904;2022-12-29T13:26:33;10.50;99.90
11855;DHT22;5987;53.140;8.904;2022-12-29T13:29:49;10.50;99.90
11855;DHT22;5987;53.140;8.904;2022-12-29T13:33:10;10.50;99.90
11855;DHT22;5987;53.140;8.904;2022-12-29T13:36:26;10.50;99.90
11855;DHT22;5987;53.140;8.904;2022-12-29T13:39:36;10.60;99.90
11855;DHT22;5987;53.140;8.904;2022-12-29T13:42:44;10.50;99.90
11855;DHT22;5987;53.140;8.904;2022-12-29T13:45:57;10.50;99.90
11855;DHT22;5987;53.140;8.904;2022-12-29T13:49:10;10.50;99.90
11855;DHT22;5987;53.140;8.904;2022-12-29T13:52:24;10.50;99.90
11855;DHT22;5987;53.140;8.904;2022-12-29T13:55:44;10.50;99.90
11855;DHT22;5987;53.140;8.904;2022-12-29T13:58:56;10.50;99.90
11855;DHT22;5987;53.140;8.904;2022-12-29T14:02:15;10.50;99.90
11855;DHT22;5987;53.140;8.904;2022-12-29T14:05:30;10.40;99.90
11855;DHT22;5987;53.140;8.904;2022-12-29T14:08:35;10.40;99.90
11855;DHT22;5987;53.140;8.904;2022-12-29T14:11:39;10.40;99.90
11855;DHT22;5987;53.140;8.904;2022-12-29T14:14:44;10.50;99.90
11855;DHT22;5987;53.140;8.904;2022-12-29T14:18:02;10.50;99.90
11855;DHT22;5987;53.140;8.904;2022-12-29T14:21:18;10.50;99.90
11855;DHT22;5987;53.140;8.904;2022-12-29T14:24:39;10.40;99.90
11855;DHT22;5987;53.140;8.904;2022-12-29T14:27:52;10.40;99.90
11855;DHT22;5987;53.140;8.904;2022-12-29T14:30:57;10.40;99.90
11855;DHT22;5987;53.140;8.904;2022-12-29T14:34:28;10.40;99.90
11855;DHT22;5987;53.140;8.904;2022-12-29T14:37:36;10.40;99.90
11855;DHT22;5987;53.140;8.904;2022-12-29T14:40:41;10.40;99.90
11855;DHT22;5987;53.140;8.904;2022-12-29T14:43:53;10.40;99.90
11855;DHT22;5987;53.140;8.904;2022-12-29T14:47:04;10.30;99.90
11855;DHT22;5987;53.140;8.904;2022-12-29T14:50:14;10.30;99.90
11855;DHT22;5987;53.140;8.904;2022-12-29T14:53:46;10.30;99.90
11855;DHT22;5987;53.140;8.904;2022-12-29T14:56:51;10.30;99.90
11855;DHT22;5987;53.140;8.904;2022-12-29T14:59:59;10.20;99.90
11855;DHT22;5987;53.140;8.904;2022-12-29T15:03:17;10.20;99.90
11855;DHT22;5987;53.140;8.904;2022-12-29T15:06:25;10.20;99.90
11855;DHT22;5987;53.140;8.904;2022-12-29T15:09:35;10.20;99.90
11855;DHT22;5987;53.140;8.904;2022-12-29T15:12:49;10.20;99.90
11855;DHT22;5987;53.140;8.904;2022-12-29T15:15:55;10.10;99.90
11855;DHT22;5987;53.140;8.904;2022-12-29T15:18:59;10.10;99.90
11855;DHT22;5987;53.140;8.904;2022-12-29T15:22:03;10.10;99.90
11855;DHT22;5987;53.140;8.904;2022-12-29T15:25:15;10.00;99.90
11855;DHT22;5987;53.140;8.904;2022-12-29T15:28:20;10.00;99.90
11855;DHT22;5987;53.140;8.904;2022-12-29T15:31:25;9.90;99.90
11855;DHT22;5987;53.140;8.904;2022-12-29T15:34:32;9.80;99.90
11855;DHT22;5987;53.140;8.904;2022-12-29T15:37:36;9.80;99.90
11855;DHT22;5987;53.140;8.904;2022-12-29T15:40:44;9.70;99.90
11855;DHT22;5987;53.140;8.904;2022-12-29T15:43:57;9.70;99.90
11855;DHT22;5987;53.140;8.904;2022-12-29T15:47:12;9.60;99.90
11855;DHT22;5987;53.140;8.904;2022-12-29T15:50:24;9.60;99.90
11855;DHT22;5987;53.140;8.904;2022-12-29T15:53:31;9.60;99.90
11855;DHT22;5987;53.140;8.904;2022-12-29T15:56:37;9.60;99.90
11855;DHT22;5987;53.140;8.904;2022-12-29T15:59:46;9.60;99.90
11855;DHT22;5987;53.140;8.904;2022-12-29T16:02:50;9.60;99.90
11855;DHT22;5987;53.140;8.904;2022-12-29T16:06:06;9.60;99.90
11855;DHT22;5987;53.140;8.904;2022-12-29T16:09:15;9.60;99.90
11855;DHT22;5987;53.140;8.904;2022-12-29T16:12:23;9.60;99.90
11855;DHT22;5987;53.140;8.904;2022-12-29T16:15:29;9.60;99.90
11855;DHT22;5987;53.140;8.904;2022-12-29T16:18:35;9.50;99.90
11855;DHT22;5987;53.140;8.904;2022-12-29T16:21:42;9.50;99.90
11855;DHT22;5987;53.140;8.904;2022-12-29T16:24:46;9.50;99.90
11855;DHT22;5987;53.140;8.904;2022-12-29T16:27:52;9.40;99.90
11855;DHT22;5987;53.140;8.904;2022-12-29T16:31:03;9.40;99.90
11855;DHT22;5987;53.140;8.904;2022-12-29T16:34:12;9.30;99.90
11855;DHT22;5987;53.140;8.904;2022-12-29T16:37:29;9.30;99.90
11855;DHT22;5987;53.140;8.904;2022-12-29T16:40:38;9.30;99.90
11855;DHT22;5987;53.140;8.904;2022-12-29T16:44:12;9.30;99.90
11855;DHT22;5987;53.140;8.904;2022-12-29T16:47:20;9.40;99.90
11855;DHT22;5987;53.140;8.904;2022-12-29T16:50:26;9.40;99.90
11855;DHT22;5987;53.140;8.904;2022-12-29T16:53:34;9.30;99.90
11855;DHT22;5987;53.140;8.904;2022-12-29T16:56:43;9.30;99.90
11855;DHT22;5987;53.140;8.904;2022-12-29T16:59:52;9.30;99.90
11855;DHT22;5987;53.140;8.904;2022-12-29T17:02:59;9.30;99.90
11855;DHT22;5987;53.140;8.904;2022-12-29T17:06:05;9.30;99.90
11855;DHT22;5987;53.140;8.904;2022-12-29T17:09:20;9.30;99.90
11855;DHT22;5987;53.140;8.904;2022-12-29T17:12:27;9.20;99.90
11855;DHT22;5987;53.140;8.904;2022-12-29T17:15:34;9.20;99.90
11855;DHT22;5987;53.140;8.904;2022-12-29T17:18:38;9.10;99.90
11855;DHT22;5987;53.140;8.904;2022-12-29T17:21:42;9.10;99.90
11855;DHT22;5987;53.140;8.904;2022-12-29T17:24:45;9.20;99.90
11855;DHT22;5987;53.140;8.904;2022-12-29T17:27:52;9.20;99.90
11855;DHT22;5987;53.140;8.904;2022-12-29T17:31:00;9.30;99.90
11855;DHT22;5987;53.140;8.904;2022-12-29T17:34:07;9.30;99.90
11855;DHT22;5987;53.140;8.904;2022-12-29T17:37:32;9.30;99.90
11855;DHT22;5987;53.140;8.904;2022-12-29T17:40:37;9.30;99.90
11855;DHT22;5987;53.140;8.904;2022-12-29T17:43:41;9.20;99.90
11855;DHT22;5987;53.140;8.904;2022-12-29T17:46:47;9.20;99.90
11855;DHT22;5987;53.140;8.904;2022-12-29T17:49:51;9.30;99.90
11855;DHT22;5987;53.140;8.904;2022-12-29T17:52:57;9.30;99.90
11855;DHT22;5987;53.140;8.904;2022-12-29T17:56:02;9.30;99.90
11855;DHT22;5987;53.140;8.904;2022-12-29T17:59:11;9.30;99.90
11855;DHT22;5987;53.140;8.904;2022-12-29T18:02:26;9.30;99.90
11855;DHT22;5987;53.140;8.904;2022-12-29T18:05:32;9.40;99.90
11855;DHT22;5987;53.140;8.904;2022-12-29T18:08:36;9.40;99.90
11855;DHT22;5987;53.140;8.904;2022-12-29T18:11:43;9.40;99.90
11855;DHT22;5987;53.140;8.904;2022-12-29T18:14:47;9.50;99.90
11855;DHT22;5987;53.140;8.904;2022-12-29T18:17:56;9.50;99.90
11855;DHT22;5987;53.140;8.904;2022-12-29T18:21:03;9.50;99.90
11855;DHT22;5987;53.140;8.904;2022-12-29T18:24:12;9.50;99.90
11855;DHT22;5987;53.140;8.904;2022-12-29T18:27:17;9.40;99.90
11855;DHT22;5987;53.140;8.904;2022-12-29T18:30:23;9.40;99.90
11855;DHT22;5987;53.140;8.904;2022-12-29T18:33:28;9.40;99.90
11855;DHT22;5987;53.140;8.904;2022-12-29T18:36:33;9.40;99.90
11855;DHT22;5987;53.140;8.904;2022-12-29T18:39:37;9.50;99.90
11855;DHT22;5987;53.140;8.904;2022-12-29T18:42:40;9.50;99.90
11855;DHT22;5987;53.140;8.904;2022-12-29T18:45:45;9.50;99.90
11855;DHT22;5987;53.140;8.904;2022-12-29T18:48:50;9.50;99.90
11855;DHT22;5987;53.140;8.904;2022-12-29T18:51:54;9.60;99.90
11855;DHT22;5987;53.140;8.904;2022-12-29T18:54:58;9.50;99.90
11855;DHT22;5987;53.140;8.904;2022-12-29T18:58:02;9.50;99.90
11855;DHT22;5987;53.140;8.904;2022-12-29T19:01:06;9.50;99.90
11855;DHT22;5987;53.140;8.904;2022-12-29T19:04:22;9.50;99.90
11855;DHT22;5987;53.140;8.904;2022-12-29T19:07:26;9.50;99.90
11855;DHT22;5987;53.140;8.904;2022-12-29T19:10:30;9.50;99.90
11855;DHT22;5987;53.140;8.904;2022-12-29T19:13:34;9.50;99.90
11855;DHT22;5987;53.140;8.904;2022-12-29T19:16:38;9.50;99.90
11855;DHT22;5987;53.140;8.904;2022-12-29T19:19:43;9.50;99.90
11855;DHT22;5987;53.140;8.904;2022-12-29T19:22:47;9.40;99.90
11855;DHT22;5987;53.140;8.904;2022-12-29T19:25:53;9.40;99.90
11855;DHT22;5987;53.140;8.904;2022-12-29T19:28:57;9.30;99.90
11855;DHT22;5987;53.140;8.904;2022-12-29T19:32:02;9.40;99.90
11855;DHT22;5987;53.140;8.904;2022-12-29T19:35:08;9.30;99.90
11855;DHT22;5987;53.140;8.904;2022-12-29T19:38:13;9.00;99.90
11855;DHT22;5987;53.140;8.904;2022-12-29T19:41:17;8.80;99.90
11855;DHT22;5987;53.140;8.904;2022-12-29T19:44:21;8.80;99.90
11855;DHT22;5987;53.140;8.904;2022-12-29T19:47:25;8.90;99.90
11855;DHT22;5987;53.140;8.904;2022-12-29T19:50:34;8.80;99.90
11855;DHT22;5987;53.140;8.904;2022-12-29T19:53:38;8.80;99.90
11855;DHT22;5987;53.140;8.904;2022-12-29T19:56:41;8.80;99.90
11855;DHT22;5987;53.140;8.904;2022-12-29T19:59:45;8.80;99.90
11855;DHT22;5987;53.140;8.904;2022-12-29T20:02:49;9.00;99.90
11855;DHT22;5987;53.140;8.904;2022-12-29T20:05:55;9.00;99.90
11855;DHT22;5987;53.140;8.904;2022-12-29T20:09:00;8.90;99.90
11855;DHT22;5987;53.140;8.904;2022-12-29T20:12:05;8.80;99.90
11855;DHT22;5987;53.140;8.904;2022-12-29T20:15:10;8.70;99.90
11855;DHT22;5987;53.140;8.904;2022-12-29T20:18:16;8.60;99.90
11855;DHT22;5987;53.140;8.904;2022-12-29T20:21:29;8.40;99.90
11855;DHT22;5987;53.140;8.904;2022-12-29T20:24:34;8.30;99.90
11855;DHT22;5987;53.140;8.904;2022-12-29T20:27:40;8.20;99.90
11855;DHT22;5987;53.140;8.904;2022-12-29T20:30:48;8.10;99.90
11855;DHT22;5987;53.140;8.904;2022-12-29T20:33:56;8.10;99.90